createdAt,value
2023-04-16T00:33:24.594Z,98694.75
2023-04-16T00:53:43.093Z,98717.19
2023-04-16T01:13:49.897Z,98715.09
2023-04-16T01:33:56.030Z,98718.69
2023-04-16T01:53:58.367Z,98721.13
2023-04-16T02:14:00.380Z,98720.09
2023-04-16T02:34:02.864Z,98741.13
2023-04-16T02:54:04.923Z,98737.84
2023-04-16T03:14:08.013Z,98750.91
2023-04-16T03:34:16.231Z,98784.94
2023-04-16T03:54:22.875Z,98809.00
2023-04-16T04:14:43.002Z,98836.06
2023-04-16T04:34:45.320Z,98857.19
2023-04-16T04:54:54.926Z,98868.81
2023-04-16T05:15:00.723Z,98891.75
2023-04-16T05:55:53.407Z,98907.19
2023-04-16T06:15:55.525Z,98928.03
2023-04-16T06:36:13.678Z,98952.41
2023-04-16T07:17:08.685Z,98956.28
2023-04-16T07:58:12.800Z,98995.09
2023-04-16T08:18:35.440Z,98998.31
2023-04-16T08:38:56.169Z,98999.72
2023-04-16T08:59:01.462Z,99024.91
2023-04-16T09:19:03.385Z,99036.38
2023-04-16T09:39:27.516Z,99040.72
2023-04-16T09:59:57.356Z,99061.28
2023-04-16T10:20:17.985Z,99045.66
2023-04-16T11:01:47.291Z,99050.38
2023-04-16T11:22:17.897Z,99053.41
2023-04-16T11:42:33.721Z,99067.56
2023-04-16T12:02:49.151Z,99061.44
2023-04-16T12:23:08.609Z,99060.16
2023-04-16T13:44:47.335Z,99021.66
2023-04-16T14:05:11.739Z,99036.34
2023-04-16T14:25:16.932Z,99026.09
2023-04-16T14:45:18.769Z,99029.81
2023-04-16T15:05:22.129Z,99017.03
2023-04-16T15:25:26.781Z,99016.84
2023-04-16T15:45:32.252Z,99034.13
2023-04-16T16:05:39.772Z,99024.47
2023-04-16T16:26:12.398Z,99023.41
2023-04-16T16:46:32.693Z,99031.50
2023-04-16T17:06:53.200Z,99045.56
2023-04-16T17:27:32.874Z,99043.38
2023-04-16T17:47:53.666Z,99036.22
2023-04-16T18:08:14.164Z,99065.34
2023-04-16T18:28:16.390Z,99073.25
2023-04-16T18:48:18.110Z,99086.09
2023-04-16T19:08:19.949Z,99094.09
2023-04-16T19:28:21.918Z,99094.88
2023-04-16T19:48:23.856Z,99105.44
2023-04-16T22:13:26.398Z,99091.53
2023-04-16T22:33:29.408Z,99056.38
2023-04-16T22:53:31.150Z,99057.66
2023-04-16T23:13:33.005Z,99041.19
2023-04-16T23:33:34.855Z,99036.25
2023-04-16T23:53:36.689Z,99033.34
